Cathedral City, California
Current Conditions -  °F | °C
As of 4:14 AM on Tuesday 27 Jan 2015 (Local Time) from KPSP Reporting Station
Overcast Overcast  
Wind Chill: 58°   Ceiling: 1400
Heat Index: 58°   Visibility: 10mi
Dew Point: 55°   Wind: 0mph
Humidity: 90%   Direction: NA
Pressure: 30.2"   Gusts: NA
Location:  33.78°N, 116.46°W
Report Text: KPSP 271214Z AUTO 00000KT 10SM OVC014 14/13 A3020 RMK AO2 T01440128 TSNO
Loading
Personal Weather Stations






























Interactive Weather Map New forecast layout! Learn more

10-Day Weather Forecast

Advertisements
Track Severe Weather on mobile